Sergiyev Posad, Russia
Current Conditions -  °F | °C
As of 12:30 AM on Thursday 27 Nov 2014 (Local Time) from UUEE Reporting Station
Light Snow Light Snow  
Wind Chill: 13°   Ceiling: 300
Heat Index: 19°   Visibility: 2.1mi
Dew Point: 18°   Wind: 4mph
Humidity: 93%   Direction: NA
Pressure: 30.42"   Gusts: NA
Location:  56.32°N, 38.13°E
Report Text: UUEE 262130Z VRB02MPS 3500 -SN BR OVC003 M07/M08 Q1030 25490245NOSIG
Loading
Personal Weather Stations






























Interactive Weather Map New forecast layout! Learn more

10-Day Weather Forecast

Advertisements
Track Severe Weather on mobile